Data for 11/02/2007

Time Sea-Level Adjusted Pressure Absolute Pressure Temperature Relative Humidity Dew Point   
(mb) (inHg) (mb) (inHg) (C) (F) (%) (C) (F)
00:05 1025 30.27 854 25.22 -0.2 31.7 50 -9.5 14.9
00:10 1025 30.27 854 25.22 -0 32 49 -9.4 15
00:15 1025 30.27 854 25.22 -0 32 50 -9.2 15.4
00:20 1025 30.27 854 25.22 -0.1 31.9 51 -9.1 15.6
00:25 1025 30.27 854 25.22 -0.4 31.3 52 -9.1 15.7
00:30 1025 30.27 854 25.22 -0.6 30.8 54 -8.9 16
00:35 1025 30.27 854 25.22 -0.8 30.6 54 -9 15.8
00:40 1025 30.27 854 25.22 -0.6 31 52 -9.3 15.2
00:45 1025 30.27 854 25.22 -0.5 31.1 54 -8.7 16.4
00:50 1025 30.27 854 25.22 -1 30.2 56 -8.7 16.3
00:55 1025 30.27 854 25.22 -1.2 29.9 57 -8.6 16.6
01:00 1025 30.27 854 25.22 -1.1 30 55 -8.9 15.9
01:05 1025 30.27 854 25.22 -0.7 30.7 53 -9.1 15.5
01:10 1025 30.27 854 25.22 -0.6 31 54 -8.8 16.1
01:15 1025 30.27 854 25.22 -0.7 30.8 54 -8.8 16.1
01:20 1025 30.27 854 25.22 -0.7 30.7 54 -9 15.9
01:25 1025 30.27 854 25.22 -0.6 30.8 53 -9.1 15.7
01:30 1025 30.27 854 25.22 -0.7 30.8 53 -9.1 15.7
01:35 1025 30.27 854 25.22 -0.7 30.7 53 -9.1 15.6
01:40 1025 30.27 854 25.22 -0.7 30.8 54 -9 15.9
01:45 1025 30.27 854 25.22 -1 30.2 57 -8.5 16.7
01:50 1025 30.27 854 25.22 -1.3 29.7 57 -8.8 16.1
01:55 1025 30.27 854 25.22 -1.3 29.6 58 -8.5 16.7
02:00 1025 30.27 854 25.22 -1.6 29.2 60 -8.3 17
02:05 1025 30.27 854 25.22 -1.7 28.9 58 -8.8 16.1
02:10 1025 30.27 854 25.22 -1.5 29.3 57 -8.9 15.9
02:15 1025 30.27 854 25.22 -1.3 29.7 57 -8.8 16.2
02:20 1025 30.27 854 25.22 -1.3 29.7 57 -8.8 16.1
02:25 1025 30.27 854 25.22 -1.3 29.7 56 -9 15.7
02:30 1025 30.27 854 25.22 -0.9 30.4 54 -9 15.8
02:35 1025 30.27 854 25.22 -0.6 30.9 51 -9.6 14.7
02:40 1025 30.27 854 25.22 -0.5 31.1 53 -9 15.8
02:45 1025 30.27 854 25.22 -0.8 30.5 54 -9.1 15.7
02:50 1025 30.27 854 25.22 -1 30.3 55 -8.9 16
02:55 1025 30.27 854 25.22 -1.1 30.1 57 -8.5 16.7
03:00 1025 30.27 854 25.22 -1.6 29.2 60 -8.4 16.9
03:05 1025 30.27 854 25.22 -2.1 28.2 61 -8.6 16.5
03:10 1025 30.27 855 25.25 -2.3 27.9 62 -8.7 16.4
03:15 1025 30.27 855 25.25 -2.1 28.3 59 -9 15.7
03:20 1025 30.27 854 25.22 -1.8 28.7 58 -9 15.8
03:25 1025 30.27 854 25.22 -1.7 29 58 -9 15.8
03:30 1025 30.27 855 25.25 -1.7 28.9 59 -8.7 16.3
03:35 1025 30.27 855 25.25 -1.8 28.8 58 -8.9 15.9
03:40 1025 30.27 855 25.25 -1.8 28.8 58 -8.9 15.9
03:45 1025 30.27 855 25.25 -1.6 29.1 56 -9.2 15.5
03:50 1025 30.27 855 25.25 -1.6 29.1 58 -8.8 16.2
03:55 1025 30.27 855 25.25 -1.8 28.8 57 -9.3 15.2
04:00 1025 30.27 855 25.25 -1.6 29.2 57 -9 15.9
04:05 1026 30.3 855 25.25 -1.8 28.7 60 -8.7 16.4
04:10 1026 30.3 855 25.25 -2.1 28.1 61 -8.8 16.2
04:15 1026 30.3 855 25.25 -2.1 28.3 59 -9 15.8
04:20 1026 30.3 855 25.25 -2.1 28.1 60 -8.8 16.1
04:25 1026 30.3 855 25.25 -2.3 27.9 60 -9.1 15.7
04:30 1026 30.3 855 25.25 -2.4 27.7 61 -9 15.9
04:35 1026 30.3 855 25.25 -2.4 27.8 61 -8.9 16
04:40 1026 30.3 855 25.25 -2.5 27.4 63 -8.7 16.3
04:45 1026 30.3 855 25.25 -3 26.7 64 -8.9 16
04:50 1026 30.3 855 25.25 -3.2 26.3 65 -8.9 16
04:55 1026 30.3 855 25.25 -2.9 26.8 64 -8.8 16.2
05:00 1026 30.3 855 25.25 -2.8 26.9 65 -8.6 16.6
05:05 1026 30.3 855 25.25 -2.9 26.8 64 -8.7 16.4
05:10 1026 30.3 855 25.25 -2.9 26.8 65 -8.6 16.5
05:15 1026 30.3 855 25.25 -2.9 26.8 66 -8.5 16.8
05:20 1026 30.3 855 25.25 -2.6 27.3 65 -8.4 17
05:25 1026 30.3 855 25.25 -2.6 27.4 64 -8.5 16.7
05:30 1026 30.3 855 25.25 -2.8 26.9 64 -8.6 16.4
05:35 1026 30.3 855 25.25 -3 26.7 65 -8.7 16.3
05:40 1026 30.3 855 25.25 -3 26.6 65 -8.7 16.3
05:45 1026 30.3 855 25.25 -3.1 26.4 66 -8.6 16.5
05:50 1026 30.3 855 25.25 -3.5 25.6 67 -8.8 16.2
05:55 1026 30.3 855 25.25 -3.6 25.5 67 -8.9 16
06:00 1026 30.3 855 25.25 -3.5 25.6 67 -8.9 16
06:05 1026 30.3 855 25.25 -3.6 25.5 67 -8.8 16.2
06:10 1026 30.3 855 25.25 -3.7 25.3 68 -8.8 16.2
06:15 1026 30.3 855 25.25 -3.8 25.1 69 -8.7 16.4
06:20 1026 30.3 855 25.25 -4 24.8 70 -8.8 16.2
06:25 1026 30.3 855 25.25 -4 24.9 69 -8.8 16.2
06:30 1026 30.3 855 25.25 -3.8 25.1 69 -8.8 16.2
06:35 1026 30.3 855 25.25 -3.8 25.2 69 -8.7 16.3
06:40 1026 30.3 855 25.25 -3.7 25.3 68 -8.7 16.3
06:45 1026 30.3 855 25.25 -3.6 25.5 67 -8.8 16.2
06:50 1026 30.3 855 25.25 -3.5 25.7 68 -8.6 16.5
06:55 1026 30.3 856 25.28 -3.5 25.8 67 -8.7 16.4
07:00 1026 30.3 855 25.25 -3.2 26.2 66 -8.7 16.4
07:05 1026 30.3 855 25.25 -3.3 26 68 -8.4 16.8
07:10 1026 30.3 856 25.28 -3.6 25.5 68 -8.7 16.4
07:15 1026 30.3 856 25.28 -3.6 25.5 66 -9 15.8
07:20 1027 30.33 856 25.28 -3.3 26 64 -9.1 15.6
07:25 1027 30.33 856 25.28 -3.1 26.5 63 -9.1 15.7
07:30 1027 30.33 856 25.28 -2.9 26.8 63 -9 15.7
07:35 1027 30.33 856 25.28 -2.9 26.8 63 -9 15.8
07:40 1027 30.33 856 25.28 -2.9 26.7 62 -9.2 15.4
07:45 1027 30.33 856 25.28 -2.9 26.7 63 -9.1 15.6
07:50 1026 30.3 856 25.28 -3 26.5 64 -9 15.9
07:55 1027 30.33 856 25.28 -3.3 26.1 65 -8.8 16.1
08:00 1027 30.33 856 25.28 -3.6 25.6 66 -9 15.8
08:05 1027 30.33 856 25.28 -3.6 25.5 66 -9.1 15.7
08:10 1027 30.33 856 25.28 -3.6 25.6 66 -9 15.8
08:15 1027 30.33 856 25.28 -3.7 25.4 68 -8.8 16.2
08:20 1027 30.33 856 25.28 -4 24.7 69 -8.9 16.1
08:25 1027 30.33 856 25.28 -4.2 24.5 68 -9.2 15.5
08:30 1027 30.33 856 25.28 -3.9 25 67 -9.1 15.6
08:35 1027 30.33 856 25.28 -3.9 25 67 -9 15.8
08:40 1027 30.33 856 25.28 -3.8 25.1 67 -9.2 15.5
08:45 1027 30.33 856 25.28 -3.7 25.4 66 -9.2 15.5
08:50 1027 30.33 856 25.28 -3.5 25.7 64 -9.4 15.1
08:55 1027 30.33 856 25.28 -3.1 26.3 62 -9.5 14.9
09:00 1027 30.33 856 25.28 -3 26.7 62 -9.3 15.2
09:05 1027 30.33 856 25.28 -2.8 26.9 61 -9.3 15.3
09:10 1027 30.33 856 25.28 -2.5 27.5 60 -9.3 15.3
09:15 1027 30.33 856 25.28 -2.1 28.2 58 -9.4 15.1
09:20 1027 30.33 856 25.28 -1.7 29 54 -9.7 14.5
09:25 1027 30.33 856 25.28 -1.2 29.9 53 -9.6 14.8
09:30 1027 30.33 857 25.31 -0.5 31.1 51 -9.5 14.8
09:35 1027 30.33 857 25.31 -0.2 31.7 50 -9.3 15.2
09:40 1027 30.33 857 25.31 -0.1 31.9 50 -9.3 15.3
09:45 1027 30.33 857 25.31 0.2 32.4 49 -9.2 15.5
09:50 1027 30.33 857 25.31 0.2 32.3 48 -9.5 14.9
09:55 1027 30.33 857 25.31 0.3 32.5 49 -9.3 15.3
10:00 1028 30.36 857 25.31 0.6 33 48 -9.3 15.2
10:05 1028 30.36 857 25.31 0.9 33.7 48 -8.9 16
10:10 1028 30.36 857 25.31 1.3 34.4 47 -8.8 16.1
10:15 1028 30.36 857 25.31 1.7 35 45 -8.9 16
10:20 1028 30.36 857 25.31 2.3 36.1 44 -8.8 16.1
10:25 1028 30.36 857 25.31 2.6 36.7 40 -9.7 14.6
10:30 1028 30.36 857 25.31 3 37.5 40 -9.2 15.4
10:35 1028 30.36 857 25.31 3.1 37.5 39 -9.4 15
10:40 1027 30.33 857 25.31 2.9 37.2 40 -9.5 14.9
10:45 1027 30.33 857 25.31 2.8 37 38 -10.3 13.5
10:50 1027 30.33 857 25.31 3.5 38.3 35 -10.6 12.9
10:55 1027 30.33 857 25.31 4 39.3 34 -10.4 13.3
11:00 1027 30.33 857 25.31 4.1 39.4 34 -10.4 13.2
11:05 1027 30.33 857 25.31 4.8 40.6 33 -10.2 13.6
11:10 1028 30.36 857 25.31 5.1 41.1 32 -10.2 13.7
11:15 1027 30.33 857 25.31 5 40.9 33 -10.1 13.9
11:20 1027 30.33 857 25.31 5.2 41.4 33 -9.9 14.2
11:25 1027 30.33 857 25.31 5.6 42 32 -9.9 14.2
11:30 1027 30.33 857 25.31 5.4 41.8 32 -9.9 14.1
11:35 1027 30.33 857 25.31 5.3 41.6 31 -10.6 13
11:40 1027 30.33 857 25.31 5.5 41.8 30 -10.6 13
11:45 1027 30.33 857 25.31 5.8 42.4 30 -10.4 13.2
11:50 1027 30.33 857 25.31 6 42.8 31 -9.8 14.3
11:55 1027 30.33 856 25.28 5.7 42.3 30 -10.5 13
12:00 1027 30.33 856 25.28 5.3 41.6 32 -10.3 13.5
12:05 1027 30.33 856 25.28 6.2 43.1 30 -10 14
12:10 1027 30.33 856 25.28 6.4 43.6 30 -10.1 13.8
12:15 1027 30.33 856 25.28 5.7 42.2 31 -10.3 13.4
12:20 1027 30.33 856 25.28 6.1 43 29 -10.8 12.6
12:25 1027 30.33 856 25.28 6.5 43.7 29 -10.5 13.1
12:30 1027 30.33 856 25.28 6.8 44.2 29 -10.1 13.8
12:35 1027 30.33 856 25.28 7.4 45.3 27 -10.4 13.3
12:40 1027 30.33 856 25.28 6.4 43.4 30 -10.1 13.9
12:45 1027 30.33 856 25.28 6 42.8 30 -10.3 13.4
12:50 1027 30.33 856 25.28 6 42.8 29 -10.8 12.6
12:55 1027 30.33 856 25.28 5.6 42.1 30 -10.7 12.7
13:00 1027 30.33 856 25.28 5.4 41.7 29 -11.4 11.5
13:05 1027 30.33 856 25.28 6.7 44 28 -10.7 12.7
13:10 1027 30.33 856 25.28 7.4 45.2 26 -11.1 12.1
13:15 1027 30.33 856 25.28 7.1 44.8 26 -11 12.2
13:20 1027 30.33 856 25.28 7.7 45.8 26 -10.8 12.5
13:25 1027 30.33 856 25.28 7.8 46.1 26 -10.6 12.9
13:30 1027 30.33 856 25.28 7.9 46.3 25 -10.7 12.7
13:35 1027 30.33 856 25.28 8.4 47 24 -10.9 12.4
13:40 1026 30.3 856 25.28 8.7 47.6 25 -10.4 13.3
13:45 1026 30.3 856 25.28 8.4 47.1 25 -10.7 12.8
13:50 1026 30.3 855 25.25 8.2 46.7 25 -10.8 12.5
13:55 1026 30.3 855 25.25 7.9 46.2 27 -10.2 13.6
14:00 1026 30.3 855 25.25 8.1 46.5 25 -11 12.2
14:05 1026 30.3 855 25.25 7.9 46.2 26 -10.3 13.5
14:10 1026 30.3 855 25.25 7 44.7 27 -10.8 12.5
14:15 1026 30.3 855 25.25 7.1 44.8 26 -11.1 12.1
14:20 1026 30.3 855 25.25 6.6 43.9 27 -11.3 11.7
14:25 1026 30.3 855 25.25 7 44.6 26 -11.4 11.4
14:30 1026 30.3 855 25.25 8 46.4 25 -11 12.2
14:35 1026 30.3 855 25.25 8.3 47 23 -11.4 11.5
14:40 1025 30.27 855 25.25 8.4 47.1 23 -11.4 11.5
14:45 1025 30.27 855 25.25 8.5 47.3 24 -10.8 12.5
14:50 1025 30.27 855 25.25 7.7 45.8 26 -10.9 12.5
14:55 1025 30.27 854 25.22 7.6 45.7 24 -11.9 10.6
15:00 1025 30.27 854 25.22 8.2 46.7 24 -11.5 11.3
15:05 1025 30.27 854 25.22 7.7 45.9 25 -11.2 11.9
15:10 1025 30.27 854 25.22 8.5 47.2 23 -11.4 11.4
15:15 1025 30.27 854 25.22 8.7 47.7 23 -11.2 11.9
15:20 1025 30.27 854 25.22 7.8 46.1 24 -11.4 11.5
15:25 1025 30.27 854 25.22 7.7 45.8 25 -11.1 12
15:30 1025 30.27 854 25.22 7.7 45.9 24 -11.6 11.1
15:35 1025 30.27 854 25.22 8.4 47 23 -11.4 11.5
15:40 1025 30.27 854 25.22 8.1 46.5 23 -11.7 11
15:45 1025 30.27 854 25.22 9.2 48.5 21 -11.9 10.6
15:50 1025 30.27 854 25.22 10 50.1 21 -11.6 11.1
15:55 1025 30.27 854 25.22 10.4 50.7 20 -11.4 11.6
16:00 1025 30.27 854 25.22 10.2 50.3 20 -11.7 10.9
16:05 1025 30.27 854 25.22 9.3 48.7 22 -11.4 11.5
16:10 1025 30.27 854 25.22 9.8 49.6 21 -11.3 11.7
16:15 1025 30.27 854 25.22 10.1 50.1 21 -11.3 11.6
16:20 1025 30.27 854 25.22 10.3 50.5 20 -11.5 11.4
16:25 1025 30.27 854 25.22 10 50 21 -11.5 11.3
16:30 1025 30.27 854 25.22 10 49.9 21 -11.3 11.6
16:35 1025 30.27 854 25.22 10.2 50.3 21 -11.1 12
16:40 1025 30.27 854 25.22 10.2 50.3 21 -11.1 12
16:45 1025 30.27 854 25.22 9.6 49.3 22 -11.4 11.5
16:50 1025 30.27 854 25.22 9.7 49.4 21 -11.4 11.5
16:55 1025 30.27 854 25.22 9.3 48.8 22 -11.4 11.5
17:00 1025 30.27 854 25.22 9.7 49.5 21 -11.4 11.4
17:05 1024 30.24 854 25.22 9.7 49.4 22 -11 12.2
17:10 1024 30.24 854 25.22 9.4 48.9 23 -10.7 12.7
17:15 1024 30.24 853 25.19 9.4 48.8 23 -10.8 12.6
17:20 1024 30.24 854 25.22 9.3 48.8 23 -10.5 13
17:25 1024 30.24 853 25.19 8.9 48.1 23 -11 12.3
17:30 1024 30.24 853 25.19 8.5 47.4 24 -11.1 11.9
17:35 1024 30.24 853 25.19 8.7 47.7 24 -11 12.2
17:40 1024 30.24 853 25.19 8.5 47.3 25 -10.5 13.1
17:45 1024 30.24 853 25.19 8 46.3 26 -10.4 13.2
17:50 1024 30.24 853 25.19 7.6 45.7 26 -10.5 13
17:55 1024 30.24 853 25.19 7.4 45.4 26 -10.6 12.8
18:00 1024 30.24 853 25.19 7.2 45 27 -10.7 12.7
18:05 1024 30.24 853 25.19 6.4 43.6 28 -10.7 12.8
18:10 1024 30.24 853 25.19 6 42.8 32 -9.3 15.2
18:15 1024 30.24 853 25.19 5.5 41.9 36 -8.3 17.1
18:20 1024 30.24 853 25.19 4.7 40.5 40 -7.9 17.8
18:25 1024 30.24 853 25.19 4.1 39.5 41 -7.9 17.7
18:30 1024 30.24 853 25.19 3.6 38.4 43 -7.8 18
18:35 1024 30.24 853 25.19 3 37.4 44 -8 17.7
18:40 1024 30.24 853 25.19 3 37.4 45 -7.8 18
18:45 1024 30.24 853 25.19 3 37.3 44 -8.2 17.3
18:50 1024 30.24 853 25.19 2.9 37.3 45 -8 17.7
18:55 1024 30.24 853 25.19 2.8 37 45 -8.1 17.4
19:00 1024 30.24 853 25.19 2.7 36.9 46 -7.7 18.1
19:05 1024 30.24 853 25.19 2.7 36.8 46 -7.8 17.9
19:10 1024 30.24 853 25.19 2.8 37 44 -8.2 17.3
19:15 1024 30.24 853 25.19 2.8 37 44 -8.2 17.3
19:20 1024 30.24 853 25.19 2.7 36.9 45 -8 17.6
19:25 1024 30.24 853 25.19 2.8 37.1 44 -8.4 16.9
19:30 1024 30.24 853 25.19 3 37.4 44 -8.1 17.5
19:35 1024 30.24 853 25.19 2.8 37 46 -7.8 17.9
19:40 1024 30.24 853 25.19 2.7 36.9 46 -7.7 18.2
19:45 1024 30.24 853 25.19 2.3 36.1 48 -7.5 18.5
19:50 1024 30.24 853 25.19 2.1 35.8 48 -7.8 17.9
19:55 1023 30.21 853 25.19 1.9 35.5 49 -7.6 18.3
20:00 1023 30.21 853 25.19 1.9 35.5 49 -7.7 18.2
20:05 1023 30.21 853 25.19 2.3 36.1 47 -8 17.6
20:10 1023 30.21 852 25.16 2.4 36.3 46 -8.1 17.4
20:15 1023 30.21 852 25.16 2.7 36.8 45 -8.2 17.2
20:20 1023 30.21 852 25.16 2.9 37.2 45 -8 17.7
20:25 1023 30.21 852 25.16 3.2 37.8 43 -8.1 17.3
20:30 1023 30.21 852 25.16 3.4 38.2 42 -8.3 17
20:35 1023 30.21 852 25.16 3.6 38.4 41 -8.5 16.8
20:40 1023 30.21 852 25.16 3.7 38.7 40 -8.6 16.5
20:45 1023 30.21 852 25.16 3.9 39.1 39 -8.7 16.4
20:50 1023 30.21 852 25.16 4 39.3 41 -8.2 17.2
20:55 1023 30.21 852 25.16 4 39.2 36 -9.6 14.6
21:00 1023 30.21 852 25.16 4.1 39.3 33 -10.7 12.8
21:05 1023 30.21 852 25.16 4.6 40.3 32 -10.8 12.6
21:10 1023 30.21 852 25.16 4.4 39.9 33 -10.6 12.9
21:15 1023 30.21 852 25.16 4.2 39.6 35 -9.9 14.3
21:20 1023 30.21 852 25.16 4.5 40 35 -9.7 14.6
21:25 1023 30.21 852 25.16 4.6 40.3 35 -9.6 14.8
21:30 1023 30.21 852 25.16 4.7 40.5 34 -9.8 14.3
21:35 1023 30.21 852 25.16 4.7 40.5 33 -10.1 13.8
21:40 1023 30.21 853 25.19 4.8 40.6 34 -10 14.1
21:45 1023 30.21 852 25.16 4.9 40.7 34 -9.8 14.4
21:50 1023 30.21 852 25.16 5 41 32 -10.3 13.5
21:55 1023 30.21 853 25.19 5.2 41.3 33 -9.8 14.4
22:00 1023 30.21 853 25.19 5.1 41.2 33 -9.7 14.5
22:05 1023 30.21 853 25.19 5.1 41.1 33 -9.9 14.2
22:10 1024 30.24 853 25.19 5 41.1 34 -9.6 14.8
22:15 1024 30.24 853 25.19 4.9 40.9 33 -9.9 14.2
22:20 1024 30.24 853 25.19 5 41 32 -10.6 13
22:25 1024 30.24 853 25.19 5.3 41.5 30 -10.9 12.3
22:30 1024 30.24 853 25.19 5.7 42.3 29 -11 12.2
22:35 1024 30.24 853 25.19 5.9 42.6 29 -10.7 12.8
22:40 1024 30.24 853 25.19 5.9 42.6 29 -10.9 12.3
22:45 1024 30.24 853 25.19 5.8 42.5 30 -10.3 13.5
22:50 1024 30.24 853 25.19 5.6 42 31 -10.4 13.3
22:55 1024 30.24 853 25.19 5.4 41.7 31 -10.4 13.4
23:00 1024 30.24 853 25.19 5.2 41.4 32 -10.2 13.6
23:05 1024 30.24 853 25.19 5.1 41.1 32 -10.3 13.5
23:10 1024 30.24 853 25.19 4.9 40.8 32 -10.4 13.3
23:15 1024 30.24 853 25.19 4.9 40.8 32 -10.3 13.4
23:20 1023 30.21 853 25.19 4.9 40.7 33 -10.3 13.5
23:25 1024 30.24 853 25.19 4.8 40.7 31 -10.7 12.7
23:30 1024 30.24 853 25.19 5 41 31 -10.7 12.8
23:35 1023 30.21 853 25.19 5.1 41.2 31 -10.6 13
23:40 1023 30.21 853 25.19 5 41.1 32 -10.5 13.2
23:45 1024 30.24 853 25.19 4.9 40.9 32 -10.3 13.4
23:50 1023 30.21 853 25.19 4.8 40.6 33 -10.4 13.3
23:55 1024 30.24 853 25.19 4.8 40.7 32 -10.3 13.4
24:00 1024 30.24 853 25.19 4.8 40.7 32 -10.4 13.3